Main page
METAR-TAF:

METAR-TAF

Airports :

Stornoway Airport

Stornoway, Scotland

latitude: 58-13N, longitude: 006-19W, elevation: 9 m

Current weather observation

The report was made 23 minutes ago, at 09:20 UTC
Wind 6 kt from the East/Southeast
Temperature 7°C
Humidity 66%
Pressure 1005 hPa
Visibility 10 km or more
no clouds below 1500 m and no cumulonimbus

METAR: EGPO 210920Z 11006KT CAVOK 07/01 Q1005

Time: 09:43 (09:43 UTC)

Forecast

The report was made 1 hour and 43 minutes ago, at 08:00 UTC
Forecast valid from 21 at 09 UTC to 21 at 18 UTC
Wind 12 kt from the Southeast
Visibility 10 km or more
Few clouds at a height of 4000 ft

TAF: EGPO 210800Z 2109/2118 13012KT 9999 FEW040

Weather observations and forecasts of more than 4000 airports (METAR and TAF reports).

The available stations are represented by yellow and red dots on the map.

Hover mouse over dot to see the name of the station.

Then click to see weather observations and forecasts.

To change the map : click on the green buttons with a black cross to zoom in, on the green button with a dash to zoom out, or on the green arrows for adjacent maps.


METAR-TAF: